Time;durP1;ratioP1;P1;durP2;ratioP2;P2;SDS_P1;SDS_P2;PMS_P1;PMS_P2;Temp;Humidity;BMP_temperature;BMP_pressure;BME280_temperature;BME280_humidity;BME280_pressure;Samples;Min_cycle;Max_cycle;Signal;HPM_P1;HPM_P2
2022/10/30 00:00:35;;;;;;;;;14.00;11.25;;;;;19.48;55.22;101030.41;4990049;28;48699;-66
2022/10/30 00:03:01;;;;;;;;;13.25;12.00;;;;;19.32;55.54;101001.59;4981354;28;45872;-65
2022/10/30 00:05:26;;;;;;;;;15.75;13.00;;;;;19.56;55.23;101034.63;4981937;28;45338;-64
2022/10/30 00:07:54;;;;;;;;;14.25;14.25;;;;;19.57;55.32;101039.94;4981834;28;45436;-63
2022/10/30 00:10:19;;;;;;;;;16.20;15.00;;;;;19.57;55.41;101045.50;4981494;28;45533;-62
2022/10/30 00:12:45;;;;;;;;;17.75;17.25;;;;;19.43;55.67;101036.75;4981426;28;45443;-62
2022/10/30 00:15:10;;;;;;;;;16.00;12.75;;;;;19.38;55.79;101042.28;4981584;28;45441;-62
2022/10/30 00:17:36;;;;;;;;;13.75;13.75;;;;;19.26;56.01;101027.72;4981788;28;45514;-62
2022/10/30 00:20:02;;;;;;;;;14.50;14.25;;;;;19.36;56.39;101034.19;4981108;28;46415;-63
2022/10/30 00:22:27;;;;;;;;;13.50;12.50;;;;;19.18;56.36;100990.06;4981530;28;45395;-64
2022/10/30 00:24:53;;;;;;;;;16.50;13.00;;;;;19.46;56.36;101032.59;4979943;28;45332;-64
2022/10/30 00:27:18;;;;;;;;;17.50;15.00;;;;;19.47;56.18;101035.13;4980759;28;45561;-63
2022/10/30 00:29:44;;;;;;;;;17.75;15.75;;;;;19.29;55.69;101000.19;4981418;28;45820;-63
2022/10/30 00:32:09;;;;;;;;;14.00;12.50;;;;;19.32;56.24;101008.00;4981391;28;45415;-63
2022/10/30 00:34:34;;;;;;;;;14.75;14.75;;;;;19.43;56.20;101028.41;4980242;28;45243;-65
2022/10/30 00:37:00;;;;;;;;;19.25;15.00;;;;;19.26;56.22;100995.13;4980149;28;45395;-64
2022/10/30 00:39:25;;;;;;;;;18.25;13.25;;;;;19.45;56.03;101030.94;4981635;28;46714;-65
2022/10/30 00:41:51;;;;;;;;;14.25;13.75;;;;;19.49;56.31;101032.09;4979798;28;45370;-63
2022/10/30 00:44:35;;;;;;;;;18.00;13.75;;;;;19.48;56.16;101025.66;4981405;28;45195;-64
2022/10/30 00:47:03;;;;;;;;;17.00;13.20;;;;;19.25;56.14;100985.13;4981473;28;45605;-63
2022/10/30 00:49:34;;;;;;;;;12.80;12.20;;;;;19.37;56.04;101030.31;4979765;28;45583;-65
2022/10/30 00:52:00;;;;;;;;;13.40;12.80;;;;;19.16;55.93;101012.56;4963866;28;45392;-65
2022/10/30 00:54:25;;;;;;;;;14.25;12.75;;;;;19.35;56.21;101043.66;4980239;28;45404;-64
2022/10/30 00:56:51;;;;;;;;;13.25;12.00;;;;;19.32;55.76;101037.78;4981672;28;45921;-65
2022/10/30 00:59:20;;;;;;;;;14.50;12.75;;;;;19.26;56.36;101038.84;4980947;28;46492;-64
2022/10/30 01:01:46;;;;;;;;;14.80;12.60;;;;;18.98;56.24;100988.72;4980074;28;45443;-65
2022/10/30 01:04:11;;;;;;;;;14.50;11.50;;;;;19.29;56.19;101047.50;4979750;28;45507;-64
2022/10/30 01:06:38;;;;;;;;;10.50;10.00;;;;;19.23;55.99;101049.38;4972063;28;45526;-65
2022/10/30 01:09:04;;;;;;;;;11.80;9.80;;;;;19.16;56.21;101045.97;4961182;28;46051;-64
2022/10/30 01:11:30;;;;;;;;;9.50;9.50;;;;;18.97;56.43;101034.34;4961462;28;45232;-65
2022/10/30 01:13:57;;;;;;;;;12.50;10.50;;;;;19.09;56.33;101048.13;4941694;28;45405;-65
2022/10/30 01:16:44;;;;;;;;;11.60;11.60;;;;;19.07;56.21;101055.88;4957432;28;45543;-65
2022/10/30 01:19:40;;;;;;;;;16.60;12.20;;;;;19.03;56.41;101055.56;4958091;28;45847;-64
2022/10/30 01:22:31;;;;;;;;;13.60;13.60;;;;;18.99;56.65;101054.38;4957002;28;45411;-65
2022/10/30 01:25:25;;;;;;;;;13.20;12.20;;;;;18.95;56.90;101056.03;4958342;28;45252;-64
2022/10/30 01:27:53;;;;;;;;;13.40;11.40;;;;;18.95;56.72;101061.56;4958949;28;45628;-65
2022/10/30 01:30:18;;;;;;;;;12.60;11.80;;;;;18.96;56.83;101060.47;4957768;28;46618;-65
2022/10/30 01:33:03;;;;;;;;;15.25;14.00;;;;;18.95;56.63;101056.84;4956562;28;45344;-64
2022/10/30 01:36:01;;;;;;;;;14.00;12.20;;;;;18.91;56.96;101055.69;4956286;28;45368;-65
2022/10/30 01:38:32;;;;;;;;;12.20;12.20;;;;;18.89;57.19;101062.63;4952890;28;45375;-65
2022/10/30 01:40:57;;;;;;;;;12.40;10.00;;;;;18.86;57.03;101052.84;4934674;28;46664;-65
2022/10/30 01:43:23;;;;;;;;;13.50;12.25;;;;;18.81;57.47;101042.53;4975690;28;45335;-65
2022/10/30 01:46:13;;;;;;;;;14.75;11.25;;;;;18.76;57.36;101044.38;4976071;28;45400;-64
2022/10/30 01:48:41;;;;;;;;;12.20;10.40;;;;;18.59;57.48;101023.06;4977491;28;45184;-65
2022/10/30 01:51:34;;;;;;;;;13.60;12.80;;;;;18.66;57.66;101053.44;4977082;28;46303;-65
2022/10/30 01:54:05;;;;;;;;;15.40;15.40;;;;;18.68;57.86;101056.81;4977387;28;45233;-65
2022/10/30 01:56:37;;;;;;;;;21.00;15.80;;;;;18.64;57.69;101047.31;4976804;28;45362;-65
2022/10/30 01:59:16;;;;;;;;;14.00;12.40;;;;;18.68;57.51;101048.47;4977378;28;45237;-65
2022/10/30 02:01:41;;;;;;;;;14.80;13.20;;;;;18.67;57.37;101035.66;4977056;28;45565;-65
2022/10/30 02:04:07;;;;;;;;;12.50;9.75;;;;;18.61;57.88;101025.59;4975825;28;45463;-65
2022/10/30 02:06:34;;;;;;;;;13.20;12.20;;;;;18.58;57.74;101015.00;4975559;28;45533;-66
2022/10/30 02:08:59;;;;;;;;;11.80;11.80;;;;;18.36;57.71;100986.09;4992325;28;45597;-65
2022/10/30 02:11:25;;;;;;;;;10.25;10.25;;;;;18.59;57.69;101022.22;4958929;28;46033;-65
2022/10/30 02:13:50;;;;;;;;;8.00;4.00;;;;;18.58;57.44;101024.19;4975439;28;45280;-65
2022/10/30 02:16:16;;;;;;;;;12.00;12.00;;;;;18.54;57.69;101012.75;4977010;28;45399;-65
2022/10/30 02:18:44;;;;;;;;;10.75;10.75;;;;;18.58;57.93;101017.75;4976098;28;45286;-65
2022/10/30 02:21:09;;;;;;;;;15.00;13.00;;;;;18.58;57.68;101018.63;4975183;28;46077;-66
2022/10/30 02:23:34;;;;;;;;;11.25;11.00;;;;;18.30;57.86;100970.47;4975607;28;45462;-64
2022/10/30 02:26:00;;;;;;;;;12.50;10.75;;;;;18.56;57.79;101021.66;4974842;28;45540;-64
2022/10/30 02:28:25;;;;;;;;;11.25;11.25;;;;;18.56;57.99;101020.78;4976905;28;45457;-65
2022/10/30 02:30:51;;;;;;;;;11.00;10.50;;;;;18.50;57.84;101006.00;4976293;28;45409;-63
2022/10/30 02:33:17;;;;;;;;;11.50;11.00;;;;;18.56;57.76;101021.66;4975556;28;45429;-65
2022/10/30 02:35:42;;;;;;;;;11.25;11.25;;;;;18.59;57.98;101008.31;4976529;28;45426;-65
2022/10/30 02:38:08;;;;;;;;;12.25;11.00;;;;;18.60;58.02;101012.78;4976335;28;45501;-65
2022/10/30 02:40:33;;;;;;;;;12.25;10.75;;;;;18.39;57.91;100970.84;4976371;28;45384;-64
2022/10/30 02:42:58;;;;;;;;;12.00;10.75;;;;;18.38;57.92;100971.94;4976299;28;45438;-65
2022/10/30 02:45:24;;;;;;;;;12.75;10.50;;;;;18.61;57.78;101012.53;4976518;28;45391;-66
2022/10/30 02:47:50;;;;;;;;;14.00;12.00;;;;;18.22;57.94;100949.56;4974910;28;45367;-65
2022/10/30 02:50:15;;;;;;;;;9.75;9.00;;;;;18.56;57.84;101016.09;4976146;28;46313;-65
2022/10/30 02:52:41;;;;;;;;;13.50;12.00;;;;;18.48;58.03;101007.38;4976428;28;45254;-64
2022/10/30 02:55:06;;;;;;;;;16.00;12.00;;;;;18.46;57.99;101007.63;4974783;28;45261;-63
2022/10/30 02:57:32;;;;;;;;;16.00;14.00;;;;;18.47;58.32;101012.06;4945594;28;45457;-64
2022/10/30 02:59:58;;;;;;;;;9.50;7.25;;;;;18.46;58.43;101006.78;4975825;28;45687;-64
2022/10/30 03:02:23;;;;;;;;;21.75;12.50;;;;;18.46;58.33;101009.56;4975763;28;45510;-65
2022/10/30 03:04:49;;;;;;;;;11.00;10.25;;;;;18.41;58.54;101010.34;4940856;28;45372;-64
2022/10/30 03:07:14;;;;;;;;;11.50;9.50;;;;;18.40;58.55;101003.09;4975872;28;45665;-64
2022/10/30 03:09:40;;;;;;;;;12.75;12.75;;;;;18.39;58.52;100999.50;4975045;28;45349;-64
2022/10/30 03:12:05;;;;;;;;;9.75;9.75;;;;;18.23;58.67;100984.56;4974329;28;45419;-64
2022/10/30 03:14:31;;;;;;;;;16.50;12.25;;;;;18.37;58.51;101011.97;4974507;28;45475;-64
2022/10/30 03:16:56;;;;;;;;;11.75;11.75;;;;;18.37;58.64;101004.44;4976217;28;45540;-64
2022/10/30 03:19:22;;;;;;;;;12.25;10.25;;;;;18.41;58.39;101000.06;4975547;28;46114;-64
2022/10/30 03:21:48;;;;;;;;;14.25;12.25;;;;;18.42;58.61;100998.13;4975596;28;45348;-64
2022/10/30 03:24:13;;;;;;;;;12.40;10.20;;;;;18.43;58.19;100992.28;4976034;28;45370;-64
2022/10/30 03:26:39;;;;;;;;;12.00;10.75;;;;;18.16;58.70;100958.91;4974829;28;45349;-64
2022/10/30 03:29:05;;;;;;;;;11.50;10.25;;;;;18.40;58.68;100998.38;4974485;28;46348;-64
2022/10/30 03:31:31;;;;;;;;;14.50;13.00;;;;;18.40;58.71;100989.19;4975577;28;45410;-64
2022/10/30 03:33:57;;;;;;;;;12.40;11.40;;;;;18.34;58.85;100985.53;4974496;28;45492;-64
2022/10/30 03:36:23;;;;;;;;;13.75;11.75;;;;;18.36;58.96;100986.09;4974997;28;45347;-64
2022/10/30 03:38:49;;;;;;;;;11.20;11.20;;;;;18.39;58.70;100991.16;4974293;28;46083;-64
2022/10/30 03:41:14;;;;;;;;;12.75;12.75;;;;;18.42;58.67;100978.69;5007112;28;45540;-64
2022/10/30 03:43:40;;;;;;;;;13.50;11.50;;;;;18.38;58.76;100969.19;4976084;28;45358;-64
2022/10/30 03:46:05;;;;;;;;;10.00;10.00;;;;;18.28;58.60;100942.09;4975874;28;45381;-64
2022/10/30 03:48:30;;;;;;;;;16.25;13.00;;;;;18.23;58.74;100942.03;5007000;28;46841;-64
2022/10/30 03:50:57;;;;;;;;;13.75;13.00;;;;;18.36;58.82;100965.81;4975559;28;45413;-64
2022/10/30 03:53:24;;;;;;;;;17.20;15.40;;;;;18.33;58.76;100977.44;4974520;28;45589;-64
2022/10/30 03:55:51;;;;;;;;;14.60;13.20;;;;;18.21;59.35;100978.44;4974928;28;45439;-64
2022/10/30 03:58:16;;;;;;;;;15.40;15.40;;;;;18.18;59.49;100978.94;4974475;28;46138;-64
2022/10/30 04:00:42;;;;;;;;;15.75;14.00;;;;;18.17;59.74;100974.47;4966415;28;45557;-64
2022/10/30 04:03:08;;;;;;;;;15.50;13.75;;;;;18.28;59.24;100967.97;4972296;28;45434;-64
2022/10/30 04:05:33;;;;;;;;;20.75;14.25;;;;;18.30;59.30;100967.69;4973319;28;45623;-63
2022/10/30 04:08:04;;;;;;;;;14.75;14.50;;;;;18.33;59.30;100974.66;4974841;28;45395;-64
2022/10/30 04:10:29;;;;;;;;;13.60;13.60;;;;;18.18;59.17;100939.22;4975407;28;45455;-64
2022/10/30 04:13:02;;;;;;;;;19.25;14.25;;;;;18.35;59.32;100966.94;4974238;28;45415;-65
2022/10/30 04:15:28;;;;;;;;;14.60;14.40;;;;;18.23;59.39;100955.94;4990596;28;45423;-64
2022/10/30 04:17:53;;;;;;;;;15.25;11.25;;;;;18.34;59.54;100966.06;4975177;28;45691;-65
2022/10/30 04:20:19;;;;;;;;;16.50;14.00;;;;;18.01;59.43;100927.03;4975608;28;45414;-65
2022/10/30 04:22:45;;;;;;;;;12.00;11.75;;;;;18.31;59.58;100971.31;4973771;28;45355;-65
2022/10/30 04:25:10;;;;;;;;;17.00;15.00;;;;;18.24;59.75;100961.22;4974426;28;45392;-64
2022/10/30 04:27:43;;;;;;;;;19.75;15.75;;;;;18.00;59.67;100919.78;4975182;28;46050;-65
2022/10/30 04:30:09;;;;;;;;;15.80;14.60;;;;;18.25;59.79;100948.19;4974158;28;45387;-63
2022/10/30 04:32:35;;;;;;;;;13.00;12.60;;;;;18.03;59.73;100921.22;4973726;28;45383;-63
2022/10/30 04:35:02;;;;;;;;;12.75;12.75;;;;;18.18;59.81;100950.34;4975482;28;45418;-65
2022/10/30 04:37:28;;;;;;;;;17.60;15.60;;;;;18.01;60.10;100926.19;4974826;28;46605;-66
2022/10/30 04:39:53;;;;;;;;;14.25;14.25;;;;;18.07;60.28;100935.44;4973582;28;45360;-65
2022/10/30 04:42:19;;;;;;;;;18.00;14.25;;;;;18.09;60.22;100952.72;4975191;28;45440;-63
2022/10/30 04:44:44;;;;;;;;;13.25;12.00;;;;;18.05;60.35;100954.28;4973595;28;45585;-63
2022/10/30 04:47:10;;;;;;;;;8.25;8.25;;;;;18.06;60.28;100956.84;4975153;28;46346;-63
2022/10/30 04:49:35;;;;;;;;;19.25;17.25;;;;;18.00;60.38;100946.72;4978342;28;45407;-63
2022/10/30 04:52:01;;;;;;;;;19.00;13.75;;;;;18.00;60.67;100953.09;4978319;28;45327;-63
2022/10/30 04:54:27;;;;;;;;;16.00;13.75;;;;;17.97;60.41;100950.84;4978614;28;45509;-63
2022/10/30 04:56:53;;;;;;;;;9.20;9.20;;;;;17.97;60.52;100953.63;4978100;28;46103;-64
2022/10/30 04:59:18;;;;;;;;;18.25;13.25;;;;;17.96;60.63;100954.72;4978367;28;45423;-64
2022/10/30 05:01:44;;;;;;;;;16.00;16.00;;;;;17.96;60.79;100956.66;4978098;28;45368;-64
2022/10/30 05:04:09;;;;;;;;;16.25;15.25;;;;;17.92;60.70;100959.09;4978362;28;45446;-63
2022/10/30 05:06:35;;;;;;;;;17.50;16.50;;;;;17.92;60.86;100956.34;4973942;28;45421;-63
2022/10/30 05:09:00;;;;;;;;;17.25;13.75;;;;;17.64;60.87;100910.97;4958609;28;45213;-63
2022/10/30 05:11:26;;;;;;;;;17.25;13.75;;;;;17.87;60.84;100956.25;4957053;28;45301;-64
2022/10/30 05:13:51;;;;;;;;;16.25;15.00;;;;;17.79;60.83;100951.16;4958902;28;45359;-64
2022/10/30 05:16:18;;;;;;;;;14.00;12.75;;;;;17.51;61.47;100925.22;4952131;28;46329;-64
2022/10/30 05:18:43;;;;;;;;;19.60;16.20;;;;;17.62;61.39;100949.25;4951488;28;45378;-63
2022/10/30 05:21:09;;;;;;;;;18.25;14.00;;;;;17.63;61.43;100950.94;4977890;28;45394;-63
2022/10/30 05:23:34;;;;;;;;;17.00;16.25;;;;;17.54;61.62;100944.97;4978053;28;45411;-63
2022/10/30 05:26:00;;;;;;;;;14.00;14.00;;;;;17.55;61.54;100945.81;4977789;28;45466;-61
2022/10/30 05:28:25;;;;;;;;;15.25;14.75;;;;;17.51;61.57;100933.53;4977540;28;45267;-64
2022/10/30 05:30:54;;;;;;;;;16.25;13.75;;;;;17.48;61.62;100930.19;5009797;28;45431;-63
2022/10/30 05:33:19;;;;;;;;;16.00;16.00;;;;;17.45;61.83;100927.91;4977798;28;45233;-64
2022/10/30 05:35:45;;;;;;;;;12.50;11.75;;;;;17.43;62.24;100926.47;4975933;28;45517;-65
2022/10/30 05:38:10;;;;;;;;;16.75;12.75;;;;;17.19;61.85;100891.44;4977030;28;45205;-65
2022/10/30 05:40:36;;;;;;;;;17.00;11.00;;;;;17.40;61.88;100922.28;4977305;28;45522;-64
2022/10/30 05:43:02;;;;;;;;;18.25;14.00;;;;;17.24;61.96;100912.88;4977419;28;45676;-63
2022/10/30 05:45:27;;;;;;;;;11.80;11.40;;;;;17.35;62.24;100936.09;4975909;28;45338;-64
2022/10/30 05:48:03;;;;;;;;;13.00;11.50;;;;;17.35;62.09;100938.84;4977465;28;45711;-62
2022/10/30 05:50:29;;;;;;;;;15.00;12.60;;;;;17.38;62.29;100946.66;4977426;28;45328;-63
2022/10/30 05:53:01;;;;;;;;;14.00;14.00;;;;;17.20;62.16;100904.22;4977361;28;45378;-63
2022/10/30 05:55:27;;;;;;;;;13.80;13.80;;;;;16.94;61.95;100859.44;4977052;28;46050;-63
2022/10/30 05:57:59;;;;;;;;;16.50;13.00;;;;;17.37;62.08;100931.13;4977231;28;45418;-63
2022/10/30 06:00:28;;;;;;;;;14.20;12.00;;;;;17.13;62.51;100892.44;4958698;28;45344;-64
2022/10/30 06:03:00;;;;;;;;;14.60;12.80;;;;;17.29;62.50;100928.78;4959639;28;45507;-63
2022/10/30 06:05:26;;;;;;;;;15.40;14.60;;;;;17.26;62.48;100921.78;4976700;28;46226;-64
2022/10/30 06:07:55;;;;;;;;;12.40;11.20;;;;;17.28;62.35;100933.47;4975615;28;45374;-63
2022/10/30 06:10:24;;;;;;;;;15.40;12.00;;;;;17.23;62.44;100927.00;4976868;28;45412;-64
2022/10/30 06:12:57;;;;;;;;;13.20;12.60;;;;;17.28;62.60;100932.66;4976281;28;45417;-62
2022/10/30 06:15:23;;;;;;;;;12.80;11.40;;;;;17.28;62.57;100938.19;4976292;28;45443;-65
2022/10/30 06:17:48;;;;;;;;;15.75;11.75;;;;;17.27;62.37;100931.78;4975631;28;45373;-66
2022/10/30 06:20:14;;;;;;;;;14.00;14.00;;;;;17.29;62.45;100926.81;4955695;28;45210;-66
2022/10/30 06:22:40;;;;;;;;;12.60;12.00;;;;;17.30;62.43;100933.22;4952799;28;46006;-66
2022/10/30 06:25:05;;;;;;;;;20.75;12.75;;;;;17.27;62.67;100934.56;4956019;28;45677;-66
2022/10/30 06:27:33;;;;;;;;;16.25;14.75;;;;;17.24;62.33;100940.59;4957011;28;45404;-65
2022/10/30 06:29:59;;;;;;;;;13.00;10.80;;;;;17.25;62.33;100936.75;4956444;28;45426;-65
2022/10/30 06:32:24;;;;;;;;;10.25;10.25;;;;;17.23;62.57;100938.94;4956957;28;45575;-66
2022/10/30 06:34:50;;;;;;;;;16.00;12.50;;;;;17.29;62.55;100937.09;4957724;28;45477;-66
2022/10/30 06:37:15;;;;;;;;;13.50;12.50;;;;;17.27;62.60;100933.72;4957571;28;45405;-65
2022/10/30 06:39:41;;;;;;;;;16.25;14.50;;;;;17.28;62.50;100939.00;4956958;28;45481;-64
2022/10/30 06:42:08;;;;;;;;;12.75;12.50;;;;;17.29;62.49;100953.75;4957471;28;45446;-65
2022/10/30 06:44:34;;;;;;;;;17.40;14.80;;;;;17.25;62.88;100953.41;4939921;28;46196;-65
2022/10/30 06:46:59;;;;;;;;;16.00;14.00;;;;;17.23;62.64;100952.78;4956125;28;45485;-66
2022/10/30 06:49:25;;;;;;;;;13.25;13.25;;;;;17.07;62.69;100935.91;4955610;28;45180;-66
2022/10/30 06:51:50;;;;;;;;;12.50;12.50;;;;;17.24;62.77;100961.97;4956235;28;45416;-66
2022/10/30 06:54:16;;;;;;;;;14.00;13.50;;;;;17.21;62.89;100963.31;4955798;28;45539;-67
2022/10/30 06:56:41;;;;;;;;;14.50;12.50;;;;;17.14;62.88;100946.81;4956983;28;45358;-63
2022/10/30 06:59:07;;;;;;;;;10.75;9.50;;;;;17.02;62.89;100921.94;4957126;28;45424;-65
2022/10/30 07:01:33;;;;;;;;;19.20;17.60;;;;;17.11;62.96;100947.34;4956234;28;45311;-64
2022/10/30 07:03:58;;;;;;;;;8.50;8.00;;;;;17.14;62.84;100954.31;4956672;28;46228;-62
2022/10/30 07:06:24;;;;;;;;;20.75;15.50;;;;;17.04;63.25;100941.94;4957027;28;45336;-62
2022/10/30 07:08:49;;;;;;;;;14.50;13.25;;;;;17.12;63.16;100949.00;4973103;28;45426;-64
2022/10/30 07:11:15;;;;;;;;;16.00;15.00;;;;;17.17;63.19;100945.47;4975190;28;45479;-65
2022/10/30 07:13:40;;;;;;;;;15.00;13.50;;;;;17.02;63.29;100915.56;4976111;28;45527;-66
2022/10/30 07:16:06;;;;;;;;;14.50;14.00;;;;;17.23;62.82;100946.41;4975113;28;45347;-66
2022/10/30 07:18:31;;;;;;;;;20.25;15.00;;;;;17.17;62.94;100943.56;4970305;28;45405;-65
2022/10/30 07:20:57;;;;;;;;;16.25;14.75;;;;;17.24;62.80;100946.16;4970636;28;45683;-65
2022/10/30 07:23:22;;;;;;;;;18.25;16.00;;;;;16.85;62.84;100885.03;4974797;28;45416;-67
2022/10/30 07:25:48;;;;;;;;;19.50;14.75;;;;;17.29;62.67;100928.78;4941079;28;45458;-68
2022/10/30 07:28:13;;;;;;;;;18.25;16.00;;;;;17.26;62.89;100926.50;4975079;28;45431;-68
2022/10/30 07:30:39;;;;;;;;;15.50;14.50;;;;;17.34;62.50;100938.00;4976635;28;45406;-66
2022/10/30 07:33:06;;;;;;;;;13.25;12.75;;;;;17.39;62.46;100942.78;4974003;28;45615;-68
2022/10/30 07:35:32;;;;;;;;;14.80;13.80;;;;;17.41;62.21;100950.88;4975899;28;45350;-64
2022/10/30 07:38:02;;;;;;;;;16.20;13.60;;;;;17.34;62.17;100946.31;4975631;28;45312;-66
2022/10/30 07:40:28;;;;;;;;;19.20;15.60;;;;;17.38;62.35;100952.22;4975896;28;45422;-67
2022/10/30 07:42:57;;;;;;;;;15.75;15.50;;;;;17.15;62.26;100915.25;4974436;28;46388;-68
2022/10/30 07:45:23;;;;;;;;;13.00;12.00;;;;;17.34;62.27;100945.47;4974418;28;45416;-68
2022/10/30 07:47:49;;;;;;;;;15.50;13.00;;;;;17.39;62.16;100948.34;4974435;28;45200;-65
2022/10/30 07:50:14;;;;;;;;;17.75;14.00;;;;;17.43;62.33;100946.75;4975897;28;45340;-68
2022/10/30 07:52:40;;;;;;;;;13.00;12.50;;;;;17.34;61.57;100939.94;4975542;28;46781;-64
2022/10/30 07:55:06;;;;;;;;;16.75;14.00;;;;;17.36;62.13;100946.09;4975220;28;45422;-66
2022/10/30 07:57:38;;;;;;;;;14.00;13.20;;;;;17.17;61.99;100923.28;5007241;28;45348;-65
2022/10/30 08:00:05;;;;;;;;;18.60;14.20;;;;;17.23;61.81;100927.00;4975202;28;45484;-67
2022/10/30 08:02:31;;;;;;;;;15.80;12.00;;;;;17.31;62.16;100946.00;4975353;28;46777;-67
2022/10/30 08:04:56;;;;;;;;;14.75;14.75;;;;;17.39;61.97;100950.28;4917876;28;45764;-67
2022/10/30 08:07:22;;;;;;;;;14.00;10.75;;;;;17.42;61.78;100956.16;4993533;28;45332;-68
2022/10/30 08:09:48;;;;;;;;;14.00;14.00;;;;;17.46;61.68;100970.38;4995187;28;45324;-64
2022/10/30 08:12:14;;;;;;;;;16.80;15.80;;;;;17.43;61.32;100970.88;4994264;28;45728;-64
2022/10/30 08:14:39;;;;;;;;;13.25;12.75;;;;;17.41;61.33;100984.16;4994355;28;45348;-64
2022/10/30 08:17:06;;;;;;;;;13.00;12.75;;;;;17.47;61.55;100989.53;4994676;28;45356;-65
2022/10/30 08:19:32;;;;;;;;;14.40;13.40;;;;;17.55;61.29;100996.59;4984414;28;45438;-68
2022/10/30 08:21:58;;;;;;;;;19.00;13.25;;;;;17.59;61.09;100996.94;4985855;28;46600;-68
2022/10/30 08:24:24;;;;;;;;;15.80;14.60;;;;;17.57;60.88;100999.13;4997263;28;45426;-68
2022/10/30 08:26:53;;;;;;;;;15.50;13.25;;;;;17.56;60.62;101005.78;4998362;28;45451;-62
2022/10/30 08:29:18;;;;;;;;;17.80;14.20;;;;;17.44;60.55;100986.41;4996907;28;45414;-66
2022/10/30 08:31:46;;;;;;;;;14.75;13.25;;;;;17.64;60.47;101027.53;4998166;28;46199;-66
2022/10/30 08:34:12;;;;;;;;;14.20;13.60;;;;;17.64;60.62;101022.00;4997918;28;45390;-66
2022/10/30 08:36:37;;;;;;;;;15.00;14.00;;;;;17.66;60.39;101028.13;4980528;28;45375;-66
2022/10/30 08:39:03;;;;;;;;;17.75;14.50;;;;;17.69;60.38;101029.56;4997664;28;45340;-64
2022/10/30 08:41:29;;;;;;;;;15.25;15.25;;;;;17.52;60.24;100985.16;4973743;28;45995;-66
2022/10/30 08:43:55;;;;;;;;;14.75;13.75;;;;;17.69;60.18;100999.88;4989353;28;45500;-62
2022/10/30 08:46:20;;;;;;;;;19.00;13.60;;;;;17.69;60.09;101007.34;4977145;28;45418;-66
2022/10/30 08:48:46;;;;;;;;;13.00;12.75;;;;;17.71;60.11;101028.22;4977380;28;45908;-65
2022/10/30 08:51:11;;;;;;;;;15.50;14.50;;;;;17.71;60.33;101022.66;4976936;28;46678;-68
2022/10/30 08:53:37;;;;;;;;;15.25;13.50;;;;;17.60;60.36;101004.16;4979939;28;45433;-67
2022/10/30 08:56:04;;;;;;;;;15.50;14.50;;;;;17.65;60.14;100995.91;4979287;28;45400;-66
2022/10/30 08:58:30;;;;;;;;;14.00;14.00;;;;;17.71;60.12;101006.00;5012850;28;45346;-66
2022/10/30 09:00:56;;;;;;;;;13.00;13.00;;;;;17.76;59.92;100999.69;4996030;28;46680;-67
2022/10/30 09:03:21;;;;;;;;;14.50;12.25;;;;;17.80;60.15;101008.34;4995491;28;45362;-68
2022/10/30 09:05:48;;;;;;;;;13.60;13.00;;;;;17.79;59.81;101003.88;4996271;28;45393;-65
2022/10/30 09:08:14;;;;;;;;;14.20;11.40;;;;;17.82;60.11;101003.41;4995768;28;45504;-67
2022/10/30 09:10:40;;;;;;;;;11.20;10.60;;;;;17.77;59.79;100995.81;4995822;28;46618;-64
2022/10/30 09:13:06;;;;;;;;;12.60;11.60;;;;;17.87;59.70;101020.09;4995331;28;45489;-66
2022/10/30 09:15:32;;;;;;;;;13.25;13.25;;;;;17.80;59.80;101016.66;4995621;28;45468;-66
2022/10/30 09:17:59;;;;;;;;;18.75;15.00;;;;;17.86;59.93;101021.22;5027728;28;45871;-65
2022/10/30 09:20:25;;;;;;;;;15.60;13.40;;;;;17.97;59.87;101024.97;4995228;28;45430;-68
2022/10/30 09:22:50;;;;;;;;;18.00;12.25;;;;;18.04;59.38;101027.59;4976733;28;45528;-68
2022/10/30 09:25:16;;;;;;;;;15.25;14.50;;;;;18.07;59.55;101024.31;4992709;28;45441;-66
2022/10/30 09:27:42;;;;;;;;;14.25;12.00;;;;;18.12;59.25;101029.94;4994600;28;45439;-65
2022/10/30 09:30:08;;;;;;;;;21.75;15.50;;;;;17.94;59.27;101004.13;4994650;28;45528;-65
2022/10/30 09:32:33;;;;;;;;;14.40;14.00;;;;;18.16;59.08;101033.91;4994266;28;45395;-65
2022/10/30 09:34:59;;;;;;;;;18.25;14.25;;;;;18.29;58.89;101041.88;5020827;28;45427;-65
2022/10/30 09:37:27;;;;;;;;;12.50;11.50;;;;;18.19;58.56;101022.28;4975423;28;45276;-67
2022/10/30 09:39:54;;;;;;;;;16.00;14.00;;;;;18.36;58.55;101026.94;4982095;28;45552;-64
2022/10/30 09:42:45;;;;;;;;;12.00;11.80;;;;;18.52;58.01;101037.16;4975822;28;45572;-64
2022/10/30 09:45:21;;;;;;;;;16.00;13.60;;;;;18.65;57.83;101040.66;4974336;28;45460;-65
2022/10/30 09:48:10;;;;;;;;;13.40;10.00;;;;;18.55;57.34;100997.75;4956753;28;45448;-65
2022/10/30 09:50:58;;;;;;;;;15.20;12.80;;;;;18.86;57.29;101044.50;4938923;28;45708;-63
2022/10/30 09:53:24;;;;;;;;;15.20;15.00;;;;;19.01;56.69;101054.97;4956631;28;45644;-67
2022/10/30 09:55:56;;;;;;;;;16.40;12.80;;;;;19.00;56.79;101022.69;4974943;28;45502;-67
2022/10/30 09:58:52;;;;;;;;;14.00;13.00;;;;;19.21;56.61;101043.22;4975074;28;45476;-68
2022/10/30 10:01:42;;;;;;;;;11.20;10.00;;;;;19.28;55.58;101040.25;4975137;28;45751;-66
2022/10/30 10:04:21;;;;;;;;;13.00;11.00;;;;;19.32;55.27;101037.78;4977739;28;45808;-66
2022/10/30 10:06:47;;;;;;;;;13.00;10.00;;;;;19.13;55.07;101003.91;4975227;28;45462;-62
2022/10/30 10:09:16;;;;;;;;;11.80;9.20;;;;;19.13;54.46;101002.00;4961084;28;45806;-65
2022/10/30 10:11:44;;;;;;;;;12.00;10.80;;;;;19.37;54.32;101048.94;4939186;28;45529;-69
2022/10/30 10:14:32;;;;;;;;;9.80;9.40;;;;;19.19;54.38;101025.13;4955583;28;45402;-69
2022/10/30 10:16:59;;;;;;;;;8.60;8.60;;;;;19.39;54.16;101037.56;4955092;28;45418;-68
2022/10/30 10:19:32;;;;;;;;;8.80;8.00;;;;;19.48;53.64;101047.94;4949570;28;45542;-64
2022/10/30 10:22:00;;;;;;;;;8.60;7.80;;;;;19.57;54.11;101053.84;4958545;28;46084;-67
2022/10/30 10:24:37;;;;;;;;;11.00;8.40;;;;;19.48;53.67;101027.63;4968287;28;45412;-67
2022/10/30 10:27:19;;;;;;;;;10.00;8.80;;;;;19.55;53.67;101028.25;4938052;28;45438;-67
2022/10/30 10:30:19;;;;;;;;;8.80;8.80;;;;;19.56;53.35;101021.56;4959408;28;45945;-67
2022/10/30 10:33:09;;;;;;;;;8.80;8.80;;;;;19.70;53.47;101041.41;4974822;28;47763;-66
2022/10/30 10:36:09;;;;;;;;;10.60;9.00;;;;;19.70;53.50;101037.81;4955860;28;45313;-66
2022/10/30 10:38:47;;;;;;;;;9.00;9.00;;;;;19.71;53.74;101033.91;4956000;28;45370;-67
2022/10/30 10:41:44;;;;;;;;;9.40;8.80;;;;;19.75;53.18;101035.09;4972802;28;45338;-66
2022/10/30 10:44:19;;;;;;;;;10.80;8.40;;;;;19.67;53.35;101029.97;4972477;28;51172;-66
2022/10/30 10:46:57;;;;;;;;;12.60;8.80;;;;;19.88;53.52;101068.03;4973055;28;45492;-66
2022/10/30 10:49:34;;;;;;;;;9.00;8.00;;;;;19.95;53.00;101078.13;4974848;28;45421;-66
2022/10/30 10:52:03;;;;;;;;;10.00;8.60;;;;;20.06;52.93;101085.44;4989944;28;46028;-66
2022/10/30 10:54:54;;;;;;;;;11.80;10.20;;;;;20.12;52.50;101092.72;4973455;28;45757;-66
2022/10/30 10:57:28;;;;;;;;;14.40;9.00;;;;;19.98;52.74;101089.59;4954275;28;45359;-68
2022/10/30 10:59:56;;;;;;;;;9.60;8.00;;;;;19.78;53.17;101066.00;4954598;28;45722;-68
2022/10/30 11:02:36;;;;;;;;;10.80;8.40;;;;;19.90;53.30;101059.41;4970371;28;45556;-67
2022/10/30 11:05:12;;;;;;;;;14.20;11.60;;;;;20.92;51.10;101090.94;4954837;28;46864;-66
2022/10/30 11:07:48;;;;;;;;;13.40;12.20;;;;;21.63;49.72;101083.00;4960914;28;45518;-67
2022/10/30 11:10:15;;;;;;;;;12.20;11.60;;;;;22.96;47.10;101086.94;4956509;28;45968;-66
2022/10/30 11:12:41;;;;;;;;;6.40;5.00;;;;;24.58;42.89;101081.66;4973906;28;45378;-67
2022/10/30 11:15:39;;;;;;;;;8.60;7.60;;;;;23.80;44.28;101102.09;4973821;28;46100;-67
2022/10/30 11:18:09;;;;;;;;;6.00;6.00;;;;;24.73;43.92;101105.91;4974108;28;45465;-68